Back to Top

Language: 

My Weather Underground Personal Weather Station Historical Data with Graphs...

Delerius Weather Station Historical Data
Daily Summary for January 7, 2017 Units:  English    Metric   Both
« Previous Day
Next Day »
Daily Weekly Monthly Yearly Custom
  High: Low: Average:
Temperature: 51.9 °F 41.6 °F 47.2 °F
Dew Point: 49.4 °F 40.3 °F 45.7 °F
Humidity: 98 % 88 % 94 %
Wind Speed: 9.0 mph 0.0 mph 3.2 mph
Wind Gust: 12.0 mph - -
Wind:- - WNW
Pressure: 30.46 in 30.39 in -
Precipitation: 0.00 in    
Historical Graphs
 
 
Tabular Data for January 7, 2017
Time Temperature Dew Point Pressure Wind Wind Speed Wind Gust Humidity Rainfall Rate (Hourly) solar Conditions
00:00 44.3 °F 43.5 °F 30.40 in Calm   8.0 mph 97 % 0.00 in 0 W/m2
00:15 44.6 °F 43.8 °F 30.40 in Calm     97 % 0.00 in 0 W/m2
00:20 44.7 °F 43.9 °F 30.39 in Calm     97 % 0.00 in 0 W/m2
00:25 44.8 °F 44.0 °F 30.39 in Calm   1.0 mph 97 % 0.00 in 0 W/m2
00:30 44.9 °F 44.1 °F 30.39 in ENE 1.0 mph 2.0 mph 97 % 0.00 in 0 W/m2
00:35 44.9 °F 44.1 °F 30.39 in ENE 1.0 mph 2.0 mph 97 % 0.00 in 0 W/m2
00:45 44.8 °F 44.0 °F 30.39 in Calm     97 % 0.00 in 0 W/m2
00:50 44.7 °F 43.6 °F 30.39 in WSW 1.0 mph 2.0 mph 96 % 0.00 in 0 W/m2
00:55 44.8 °F 44.0 °F 30.39 in WSW 2.0 mph 4.0 mph 97 % 0.00 in 0 W/m2
01:00 44.8 °F 44.0 °F 30.39 in WSW 2.0 mph 3.0 mph 97 % 0.00 in 0 W/m2
01:05 44.8 °F 44.0 °F 30.39 in WSW 2.0 mph 3.0 mph 97 % 0.00 in 0 W/m2
01:10 44.9 °F 44.1 °F 30.40 in WSW 1.0 mph 1.0 mph 97 % 0.00 in 0 W/m2
01:15 44.8 °F 44.0 °F 30.40 in Calm   1.0 mph 97 % 0.00 in 0 W/m2
01:25 44.6 °F 43.8 °F 30.40 in Calm   1.0 mph 97 % 0.00 in 0 W/m2
01:30 44.4 °F 43.3 °F 30.40 in Calm   1.0 mph 96 % 0.00 in 0 W/m2
01:40 44.7 °F 43.9 °F 30.40 in WSW 3.0 mph 4.0 mph 97 % 0.00 in 0 W/m2
01:45 45.0 °F 44.2 °F 30.40 in WSW 4.0 mph 5.0 mph 97 % 0.00 in 0 W/m2
01:50 45.2 °F 44.4 °F 30.40 in WSW 4.0 mph 6.0 mph 97 % 0.00 in 0 W/m2
01:55 45.3 °F 44.5 °F 30.40 in WSW 4.0 mph 6.0 mph 97 % 0.00 in 0 W/m2
02:00 45.3 °F 44.5 °F 30.40 in WSW 4.0 mph 4.0 mph 97 % 0.00 in 0 W/m2
02:05 45.4 °F 44.6 °F 30.40 in WSW 3.0 mph 4.0 mph 97 % 0.00 in 0 W/m2
02:15 45.4 °F 44.6 °F 30.40 in Calm   1.0 mph 97 % 0.00 in 0 W/m2
02:20 45.3 °F 44.5 °F 30.40 in Calm   1.0 mph 97 % 0.00 in 0 W/m2
02:25 45.3 °F 44.5 °F 30.40 in Calm   4.0 mph 97 % 0.00 in 0 W/m2
02:30 45.5 °F 44.7 °F 30.40 in WSW 1.0 mph 1.0 mph 97 % 0.00 in 0 W/m2
02:35 45.9 °F 45.1 °F 30.40 in WNW 3.0 mph 7.0 mph 97 % 0.00 in 0 W/m2
02:40 46.5 °F 46.0 °F 30.40 in WNW 6.0 mph 10.0 mph 98 % 0.00 in 0 W/m2
02:50 47.3 °F 46.5 °F 30.39 in WNW 9.0 mph 9.0 mph 97 % 0.00 in 0 W/m2
02:55 47.4 °F 46.6 °F 30.40 in WNW 9.0 mph 12.0 mph 97 % 0.00 in 0 W/m2
03:00 47.5 °F 46.7 °F 30.39 in NW 8.0 mph 9.0 mph 97 % 0.00 in 0 W/m2
03:05 47.5 °F 46.7 °F 30.39 in West 9.0 mph 12.0 mph 97 % 0.00 in 0 W/m2
03:10 47.7 °F 46.9 °F 30.39 in WNW 9.0 mph 9.0 mph 97 % 0.00 in 0 W/m2
03:15 47.7 °F 46.9 °F 30.39 in NW 9.0 mph 9.0 mph 97 % 0.00 in 0 W/m2
03:25 47.8 °F 47.0 °F 30.39 in WNW 8.0 mph 10.0 mph 97 % 0.00 in 0 W/m2
03:30 47.9 °F 47.1 °F 30.40 in WNW 8.0 mph 8.0 mph 97 % 0.00 in 0 W/m2
03:35 48.0 °F 47.2 °F 30.40 in WNW 6.0 mph 8.0 mph 97 % 0.00 in 0 W/m2
03:40 48.1 °F 47.3 °F 30.40 in WNW 6.0 mph 6.0 mph 97 % 0.00 in 0 W/m2
03:45 48.2 °F 47.1 °F 30.40 in West 6.0 mph 6.0 mph 96 % 0.00 in 0 W/m2
03:50 48.2 °F 47.1 °F 30.40 in NW 7.0 mph 10.0 mph 96 % 0.00 in 0 W/m2
03:55 48.3 °F 47.2 °F 30.40 in NW 8.0 mph 10.0 mph 96 % 0.00 in 0 W/m2
04:05 48.2 °F 47.1 °F 30.40 in WNW 7.0 mph 7.0 mph 96 % 0.00 in 0 W/m2
04:10 48.2 °F 46.8 °F 30.40 in WNW 7.0 mph 7.0 mph 95 % 0.00 in 0 W/m2
04:15 48.3 °F 46.9 °F 30.40 in NW 7.0 mph 7.0 mph 95 % 0.00 in 0 W/m2
04:20 48.3 °F 46.9 °F 30.40 in West 6.0 mph 9.0 mph 95 % 0.00 in 0 W/m2
04:25 48.2 °F 46.8 °F 30.40 in WNW 7.0 mph 10.0 mph 95 % 0.00 in 0 W/m2
04:30 48.2 °F 46.8 °F 30.40 in WNW 6.0 mph 6.0 mph 95 % 0.00 in 0 W/m2
04:40 48.0 °F 46.6 °F 30.40 in WNW 7.0 mph 7.0 mph 95 % 0.00 in 0 W/m2
04:45 47.9 °F 46.3 °F 30.40 in WNW 7.0 mph 7.0 mph 94 % 0.00 in 0 W/m2
04:50 47.7 °F 46.1 °F 30.40 in WNW 7.0 mph 7.0 mph 94 % 0.00 in 0 W/m2
04:55 47.6 °F 46.2 °F 30.40 in WNW 8.0 mph 8.0 mph 95 % 0.00 in 0 W/m2
05:00 47.5 °F 46.1 °F 30.40 in WNW 7.0 mph 7.0 mph 95 % 0.00 in 0 W/m2
05:05 47.4 °F 46.0 °F 30.40 in WNW 6.0 mph 7.0 mph 95 % 0.00 in 0 W/m2
05:15 47.3 °F 45.7 °F 30.40 in WNW 7.0 mph 7.0 mph 94 % 0.00 in 0 W/m2
05:20 47.2 °F 45.8 °F 30.40 in WNW 6.0 mph 6.0 mph 95 % 0.00 in 0 W/m2
05:25 47.2 °F 45.8 °F 30.40 in WNW 6.0 mph 6.0 mph 95 % 0.00 in 0 W/m2
05:30 47.1 °F 45.7 °F 30.40 in NW 6.0 mph 6.0 mph 95 % 0.00 in 0 W/m2
05:35 47.1 °F 45.7 °F 30.40 in WNW 6.0 mph 7.0 mph 95 % 0.00 in 0 W/m2
05:40 47.1 °F 45.7 °F 30.40 in NW 6.0 mph 7.0 mph 95 % 0.00 in 0 W/m2
05:45 47.0 °F 45.6 °F 30.40 in WNW 6.0 mph 7.0 mph 95 % 0.00 in 0 W/m2
05:55 47.0 °F 45.6 °F 30.40 in West 6.0 mph 9.0 mph 95 % 0.00 in 0 W/m2
06:05 47.2 °F 45.8 °F 30.41 in NW 7.0 mph 8.0 mph 95 % 0.00 in 0 W/m2
06:10 47.4 °F 46.0 °F 30.41 in WNW 8.0 mph 8.0 mph 95 % 0.00 in 0 W/m2
06:15 47.6 °F 46.2 °F 30.41 in NW 8.0 mph 8.0 mph 95 % 0.00 in 0 W/m2
06:20 47.8 °F 46.4 °F 30.41 in NW 7.0 mph 7.0 mph 95 % 0.00 in 0 W/m2
06:25 47.9 °F 46.5 °F 30.41 in NW 6.0 mph 7.0 mph 95 % 0.00 in 0 W/m2
06:35 48.2 °F 46.8 °F 30.42 in NW 6.0 mph 7.0 mph 95 % 0.00 in 0 W/m2
06:40 48.2 °F 46.8 °F 30.42 in WNW 6.0 mph 7.0 mph 95 % 0.00 in 0 W/m2
06:50 48.3 °F 46.9 °F 30.42 in NW 6.0 mph 6.0 mph 95 % 0.00 in 0 W/m2
06:55 48.3 °F 46.7 °F 30.42 in WNW 5.0 mph 6.0 mph 94 % 0.00 in 0 W/m2
07:00 48.1 °F 46.5 °F 30.42 in WNW 6.0 mph 6.0 mph 94 % 0.00 in 0 W/m2
07:05 48.0 °F 46.4 °F 30.42 in WNW 6.0 mph 6.0 mph 94 % 0.00 in 0 W/m2
07:10 47.9 °F 46.3 °F 30.42 in NW 6.0 mph 6.0 mph 94 % 0.00 in 0 W/m2
07:15 47.9 °F 46.3 °F 30.42 in NW 6.0 mph 7.0 mph 94 % 0.00 in 0 W/m2
07:25 47.9 °F 46.3 °F 30.43 in NW 7.0 mph 8.0 mph 94 % 0.00 in 0 W/m2
07:30 48.0 °F 46.6 °F 30.42 in WNW 6.0 mph 8.0 mph 95 % 0.00 in 0 W/m2
07:35 48.0 °F 46.6 °F 30.43 in WNW 5.0 mph 8.0 mph 95 % 0.00 in 0 W/m2
07:40 48.0 °F 46.4 °F 30.43 in WNW 5.0 mph 7.0 mph 94 % 0.00 in 0 W/m2
07:45 48.0 °F 46.4 °F 30.43 in NW 5.0 mph 7.0 mph 94 % 0.00 in 0 W/m2
07:50 48.0 °F 46.4 °F 30.43 in WNW 6.0 mph 6.0 mph 94 % 0.00 in 0 W/m2
08:00 47.9 °F 46.3 °F 30.43 in WNW 5.0 mph 6.0 mph 94 % 0.00 in 0 W/m2
08:05 47.8 °F 46.2 °F 30.43 in NW 5.0 mph 6.0 mph 94 % 0.00 in 0 W/m2
08:10 47.6 °F 46.0 °F 30.43 in NW 4.0 mph 6.0 mph 94 % 0.00 in 0 W/m2
08:15 47.4 °F 46.0 °F 30.43 in NW 4.0 mph 6.0 mph 95 % 0.00 in 0 W/m2
08:20 47.3 °F 45.7 °F 30.43 in NW 4.0 mph 4.0 mph 94 % 0.00 in 5 W/m2
08:25 47.2 °F 45.8 °F 30.43 in NW 4.0 mph 4.0 mph 95 % 0.00 in 7 W/m2
08:35 47.1 °F 45.7 °F 30.44 in WNW 3.0 mph 6.0 mph 95 % 0.00 in 9 W/m2
08:40 47.2 °F 45.8 °F 30.44 in WNW 4.0 mph 5.0 mph 95 % 0.00 in 11 W/m2
08:45 47.3 °F 45.9 °F 30.44 in WNW 5.0 mph 5.0 mph 95 % 0.00 in 14 W/m2
08:50 47.3 °F 45.9 °F 30.44 in WNW 4.0 mph 4.0 mph 95 % 0.00 in 21 W/m2
08:55 47.2 °F 45.8 °F 30.44 in WNW 3.0 mph 4.0 mph 95 % 0.00 in 32 W/m2
09:00 47.2 °F 45.8 °F 30.44 in WNW 2.0 mph 2.0 mph 95 % 0.00 in 33 W/m2
09:10 47.2 °F 46.1 °F 30.44 in WNW 2.0 mph 2.0 mph 96 % 0.00 in 46 W/m2
09:15 47.3 °F 46.2 °F 30.44 in WNW 2.0 mph 3.0 mph 96 % 0.00 in 32 W/m2
09:20 47.4 °F 46.3 °F 30.44 in WNW 3.0 mph 4.0 mph 96 % 0.00 in 33 W/m2
09:25 47.5 °F 46.4 °F 30.44 in WNW 3.0 mph 4.0 mph 96 % 0.00 in 42 W/m2
09:30 47.6 °F 46.5 °F 30.44 in WNW 3.0 mph 5.0 mph 96 % 0.00 in 44 W/m2
09:35 47.7 °F 46.6 °F 30.44 in WNW 3.0 mph 5.0 mph 96 % 0.00 in 139 W/m2
09:45 48.4 °F 47.3 °F 30.45 in NW 5.0 mph 7.0 mph 96 % 0.00 in 146 W/m2
09:50 48.8 °F 47.7 °F 30.45 in NW 6.0 mph 6.0 mph 96 % 0.00 in 86 W/m2
09:55 49.0 °F 47.9 °F 30.45 in WNW 5.0 mph 10.0 mph 96 % 0.00 in 95 W/m2
10:00 49.3 °F 48.2 °F 30.45 in WNW 5.0 mph 5.0 mph 96 % 0.00 in 109 W/m2
10:05 49.6 °F 48.5 °F 30.45 in WNW 5.0 mph 5.0 mph 96 % 0.00 in 199 W/m2
10:10 50.1 °F 49.0 °F 30.45 in NW 5.0 mph 6.0 mph 96 % 0.00 in 137 W/m2
10:15 50.4 °F 49.0 °F 30.45 in WNW 5.0 mph 6.0 mph 95 % 0.00 in 104 W/m2
10:25 50.4 °F 48.7 °F 30.45 in NW 4.0 mph 5.0 mph 94 % 0.00 in 65 W/m2
10:30 50.4 °F 48.5 °F 30.45 in WNW 4.0 mph 7.0 mph 93 % 0.00 in 51 W/m2
10:35 50.3 °F 48.4 °F 30.45 in WNW 3.0 mph 7.0 mph 93 % 0.00 in 49 W/m2
10:40 50.2 °F 48.3 °F 30.46 in WNW 3.0 mph 3.0 mph 93 % 0.00 in 42 W/m2
10:45 50.2 °F 48.3 °F 30.45 in WNW 2.0 mph 3.0 mph 93 % 0.00 in 35 W/m2
10:50 50.1 °F 48.2 °F 30.46 in NW 2.0 mph 2.0 mph 93 % 0.00 in 37 W/m2
11:00 49.9 °F 48.0 °F 30.45 in NW 2.0 mph 2.0 mph 93 % 0.00 in 49 W/m2
11:05 49.9 °F 48.0 °F 30.45 in NW 2.0 mph 4.0 mph 93 % 0.00 in 62 W/m2
11:15 50.0 °F 48.3 °F 30.46 in NW 2.0 mph 3.0 mph 94 % 0.00 in 49 W/m2
11:20 50.0 °F 48.3 °F 30.46 in NW 1.0 mph 1.0 mph 94 % 0.00 in 40 W/m2
11:25 50.0 °F 48.3 °F 30.46 in NW 1.0 mph 3.0 mph 94 % 0.00 in 51 W/m2
11:35 49.9 °F 48.2 °F 30.45 in NW 2.0 mph 2.0 mph 94 % 0.00 in 42 W/m2
11:40 49.9 °F 48.2 °F 30.45 in NW 1.0 mph 4.0 mph 94 % 0.00 in 47 W/m2
11:45 50.0 °F 48.3 °F 30.45 in NW 2.0 mph 4.0 mph 94 % 0.00 in 67 W/m2
11:50 50.0 °F 48.3 °F 30.45 in NW 2.0 mph 2.0 mph 94 % 0.00 in 60 W/m2
11:55 50.0 °F 48.3 °F 30.45 in WNW 2.0 mph 2.0 mph 94 % 0.00 in 81 W/m2
12:00 50.1 °F 48.4 °F 30.45 in WNW 3.0 mph 3.0 mph 94 % 0.00 in 95 W/m2
12:10 50.2 °F 48.5 °F 30.45 in NW 3.0 mph 5.0 mph 94 % 0.00 in 86 W/m2
12:15 50.3 °F 48.6 °F 30.45 in NNW 3.0 mph 5.0 mph 94 % 0.00 in 84 W/m2
12:20 50.4 °F 48.5 °F 30.44 in NW 2.0 mph 2.0 mph 93 % 0.00 in 104 W/m2
12:25 50.5 °F 48.6 °F 30.44 in NNW 1.0 mph 2.0 mph 93 % 0.00 in 167 W/m2
12:30 50.7 °F 48.7 °F 30.44 in NNW 1.0 mph 1.0 mph 93 % 0.00 in 135 W/m2
12:35 50.9 °F 48.9 °F 30.44 in NNW 1.0 mph 1.0 mph 93 % 0.00 in 167 W/m2
12:45 51.4 °F 49.4 °F 30.43 in NNW 2.0 mph 4.0 mph 93 % 0.00 in 151 W/m2
12:50 51.6 °F 49.4 °F 30.44 in NNW 2.0 mph 3.0 mph 92 % 0.00 in 135 W/m2
12:55 51.7 °F 49.2 °F 30.43 in NNW 2.0 mph 3.0 mph 91 % 0.00 in 79 W/m2
13:00 51.7 °F 49.2 °F 30.43 in NW 2.0 mph 3.0 mph 91 % 0.00 in 72 W/m2
13:05 51.8 °F 49.3 °F 30.43 in NW 2.0 mph 3.0 mph 91 % 0.00 in 130 W/m2
13:10 51.8 °F 49.0 °F 30.43 in NW 1.0 mph 1.0 mph 90 % 0.00 in 69 W/m2
13:15 51.9 °F 49.1 °F 30.43 in NW 1.0 mph 1.0 mph 90 % 0.00 in 56 W/m2
13:25 51.9 °F 48.8 °F 30.43 in NW 3.0 mph 3.0 mph 89 % 0.00 in 40 W/m2
13:30 51.8 °F 48.7 °F 30.43 in NW 4.0 mph 4.0 mph 89 % 0.00 in 23 W/m2
13:35 51.7 °F 48.3 °F 30.43 in WNW 4.0 mph 6.0 mph 88 % 0.00 in 39 W/m2
13:40 51.6 °F 48.2 °F 30.43 in NW 5.0 mph 5.0 mph 88 % 0.00 in 35 W/m2
13:45 51.5 °F 48.1 °F 30.43 in NW 4.0 mph 5.0 mph 88 % 0.00 in 32 W/m2
13:50 51.4 °F 48.0 °F 30.43 in NW 3.0 mph 3.0 mph 88 % 0.00 in 32 W/m2
14:00 51.3 °F 47.9 °F 30.43 in NW 2.0 mph 2.0 mph 88 % 0.00 in 28 W/m2
14:05 51.3 °F 47.9 °F 30.44 in NW 2.0 mph 2.0 mph 88 % 0.00 in 32 W/m2
14:10 51.2 °F 48.1 °F 30.44 in NW 2.0 mph 3.0 mph 89 % 0.00 in 21 W/m2
14:15 51.2 °F 48.1 °F 30.44 in NW 1.0 mph 3.0 mph 89 % 0.00 in 19 W/m2
14:20 51.1 °F 48.0 °F 30.44 in WNW 2.0 mph 7.0 mph 89 % 0.00 in 25 W/m2
14:25 51.0 °F 47.9 °F 30.44 in NNW 3.0 mph 7.0 mph 89 % 0.00 in 26 W/m2
14:35 50.9 °F 47.8 °F 30.44 in NW 2.0 mph 3.0 mph 89 % 0.00 in 14 W/m2
14:40 50.9 °F 47.8 °F 30.44 in NW 1.0 mph 1.0 mph 89 % 0.00 in 32 W/m2
14:45 50.9 °F 48.1 °F 30.44 in NW 1.0 mph 2.0 mph 90 % 0.00 in 37 W/m2
14:50 50.9 °F 48.1 °F 30.44 in WNW 1.0 mph 1.0 mph 90 % 0.00 in 37 W/m2
14:55 50.8 °F 48.0 °F 30.44 in WNW 1.0 mph 1.0 mph 90 % 0.00 in 35 W/m2
15:00 50.8 °F 48.0 °F 30.44 in NW 1.0 mph 2.0 mph 90 % 0.00 in 26 W/m2
15:05 50.8 °F 48.0 °F 30.44 in NW 1.0 mph 2.0 mph 90 % 0.00 in 23 W/m2
15:10 50.8 °F 48.0 °F 30.44 in NW 1.0 mph 1.0 mph 90 % 0.00 in 23 W/m2
15:15 50.8 °F 48.0 °F 30.44 in West 2.0 mph 4.0 mph 90 % 0.00 in 18 W/m2
15:20 50.7 °F 47.9 °F 30.44 in WNW 3.0 mph 5.0 mph 90 % 0.00 in 18 W/m2
15:35 50.5 °F 47.7 °F 30.44 in WNW 5.0 mph 7.0 mph 90 % 0.00 in 11 W/m2
15:40 50.4 °F 47.6 °F 30.45 in WNW 5.0 mph 6.0 mph 90 % 0.00 in 9 W/m2
15:45 50.3 °F 47.8 °F 30.45 in NW 4.0 mph 6.0 mph 91 % 0.00 in 5 W/m2
15:55 50.1 °F 47.6 °F 30.44 in NW 2.0 mph 4.0 mph 91 % 0.00 in 7 W/m2
16:00 50.1 °F 47.6 °F 30.45 in WNW 3.0 mph 6.0 mph 91 % 0.00 in 5 W/m2
16:05 49.9 °F 47.4 °F 30.45 in NW 4.0 mph 6.0 mph 91 % 0.00 in 0 W/m2
16:10 49.8 °F 47.3 °F 30.45 in NW 4.0 mph 4.0 mph 91 % 0.00 in 0 W/m2
16:20 49.4 °F 46.9 °F 30.45 in NW 4.0 mph 4.0 mph 91 % 0.00 in 0 W/m2
16:25 49.2 °F 46.7 °F 30.45 in NW 3.0 mph 4.0 mph 91 % 0.00 in 0 W/m2
16:30 48.9 °F 46.4 °F 30.45 in NW 2.0 mph 2.0 mph 91 % 0.00 in 0 W/m2
16:35 48.7 °F 46.2 °F 30.45 in NW 1.0 mph 2.0 mph 91 % 0.00 in 0 W/m2
16:40 48.5 °F 46.3 °F 30.45 in Calm   1.0 mph 92 % 0.00 in 0 W/m2
16:45 48.3 °F 45.8 °F 30.45 in Calm   1.0 mph 91 % 0.00 in 0 W/m2
16:55 47.7 °F 45.5 °F 30.45 in Calm   1.0 mph 92 % 0.00 in 0 W/m2
17:00 47.5 °F 45.3 °F 30.44 in Calm   1.0 mph 92 % 0.00 in 0 W/m2
17:05 47.2 °F 45.0 °F 30.44 in Calm   1.0 mph 92 % 0.00 in 0 W/m2
17:10 47.0 °F 44.8 °F 30.44 in Calm   1.0 mph 92 % 0.00 in 0 W/m2
17:20 46.3 °F 44.1 °F 30.45 in Calm   1.0 mph 92 % 0.00 in 0 W/m2
17:30 45.7 °F 43.5 °F 30.45 in Calm   1.0 mph 92 % 0.00 in 0 W/m2
17:35 45.4 °F 43.5 °F 30.45 in Calm   1.0 mph 93 % 0.00 in 0 W/m2
17:40 45.2 °F 43.3 °F 30.45 in Calm   1.0 mph 93 % 0.00 in 0 W/m2
17:45 45.0 °F 43.1 °F 30.45 in Calm   1.0 mph 93 % 0.00 in 0 W/m2
17:55 44.9 °F 43.3 °F 30.45 in Calm   1.0 mph 94 % 0.00 in 0 W/m2
18:05 45.0 °F 43.7 °F 30.45 in Calm   1.0 mph 95 % 0.00 in 0 W/m2
18:10 45.0 °F 43.7 °F 30.45 in Calm   1.0 mph 95 % 0.00 in 0 W/m2
18:15 45.1 °F 43.8 °F 30.45 in Calm   1.0 mph 95 % 0.00 in 0 W/m2
18:20 45.2 °F 43.9 °F 30.45 in Calm   1.0 mph 95 % 0.00 in 0 W/m2
18:25 45.3 °F 44.0 °F 30.45 in Calm   1.0 mph 95 % 0.00 in 0 W/m2
18:30 45.3 °F 44.0 °F 30.45 in Calm   1.0 mph 95 % 0.00 in 0 W/m2
18:40 45.3 °F 44.0 °F 30.45 in Calm   1.0 mph 95 % 0.00 in 0 W/m2
18:45 45.2 °F 43.9 °F 30.45 in Calm   2.0 mph 95 % 0.00 in 0 W/m2
18:50 45.3 °F 44.2 °F 30.45 in NW 2.0 mph 4.0 mph 96 % 0.00 in 0 W/m2
18:55 45.8 °F 44.7 °F 30.45 in NW 4.0 mph 4.0 mph 96 % 0.00 in 0 W/m2
19:00 46.3 °F 45.2 °F 30.45 in WNW 4.0 mph 4.0 mph 96 % 0.00 in 0 W/m2
19:05 46.7 °F 45.9 °F 30.45 in West 4.0 mph 6.0 mph 97 % 0.00 in 0 W/m2
19:15 46.6 °F 45.5 °F 30.45 in WNW 3.0 mph 5.0 mph 96 % 0.00 in 0 W/m2
19:20 46.5 °F 45.1 °F 30.45 in WNW 3.0 mph 3.0 mph 95 % 0.00 in 0 W/m2
19:25 46.5 °F 45.4 °F 30.45 in NW 3.0 mph 5.0 mph 96 % 0.00 in 0 W/m2
19:30 46.7 °F 45.6 °F 30.45 in NW 4.0 mph 4.0 mph 96 % 0.00 in 0 W/m2
19:35 46.8 °F 45.7 °F 30.45 in NW 4.0 mph 4.0 mph 96 % 0.00 in 0 W/m2
19:45 47.0 °F 45.9 °F 30.45 in WNW 4.0 mph 6.0 mph 96 % 0.00 in 0 W/m2
19:50 47.0 °F 45.6 °F 30.45 in WNW 4.0 mph 5.0 mph 95 % 0.00 in 0 W/m2
19:55 47.0 °F 45.6 °F 30.45 in WNW 4.0 mph 5.0 mph 95 % 0.00 in 0 W/m2
20:00 46.9 °F 45.5 °F 30.45 in WNW 4.0 mph 4.0 mph 95 % 0.00 in 0 W/m2
20:05 46.8 °F 45.4 °F 30.45 in WNW 3.0 mph 4.0 mph 95 % 0.00 in 0 W/m2
20:10 46.6 °F 45.0 °F 30.45 in WNW 3.0 mph 3.0 mph 94 % 0.00 in 0 W/m2
20:20 46.1 °F 44.5 °F 30.45 in WNW 3.0 mph 3.0 mph 94 % 0.00 in 0 W/m2
20:25 45.8 °F 44.2 °F 30.45 in WNW 2.0 mph 3.0 mph 94 % 0.00 in 0 W/m2
20:35 45.3 °F 43.7 °F 30.46 in Calm   1.0 mph 94 % 0.00 in 0 W/m2
20:40 45.0 °F 43.4 °F 30.46 in Calm   1.0 mph 94 % 0.00 in 0 W/m2
20:50 44.6 °F 43.0 °F 30.46 in Calm   1.0 mph 94 % 0.00 in 0 W/m2
20:55 44.4 °F 42.8 °F 30.46 in Calm   1.0 mph 94 % 0.00 in 0 W/m2
21:00 44.2 °F 42.6 °F 30.46 in Calm   1.0 mph 94 % 0.00 in 0 W/m2
21:05 43.8 °F 42.2 °F 30.46 in Calm   1.0 mph 94 % 0.00 in 0 W/m2
21:10 43.6 °F 42.0 °F 30.46 in Calm   1.0 mph 94 % 0.00 in 0 W/m2
21:15 43.4 °F 41.8 °F 30.46 in Calm   1.0 mph 94 % 0.00 in 0 W/m2
21:25 43.1 °F 41.8 °F 30.46 in WNW 2.0 mph 2.0 mph 95 % 0.00 in 0 W/m2
21:30 43.1 °F 41.8 °F 30.46 in WNW 2.0 mph 2.0 mph 95 % 0.00 in 0 W/m2
21:35 43.0 °F 41.7 °F 30.46 in WNW 1.0 mph 2.0 mph 95 % 0.00 in 0 W/m2
21:40 42.6 °F 41.3 °F 30.46 in Calm   1.0 mph 95 % 0.00 in 0 W/m2
21:45 42.3 °F 40.7 °F 30.46 in Calm   1.0 mph 94 % 0.00 in 0 W/m2
21:50 41.9 °F 40.3 °F 30.46 in Calm   1.0 mph 94 % 0.00 in 0 W/m2
22:00 41.7 °F 40.4 °F 30.46 in WNW 1.0 mph 3.0 mph 95 % 0.00 in 0 W/m2
22:05 41.9 °F 40.8 °F 30.46 in WNW 2.0 mph 3.0 mph 96 % 0.00 in 0 W/m2
22:10 42.1 °F 41.0 °F 30.46 in WNW 3.0 mph 3.0 mph 96 % 0.00 in 0 W/m2
22:15 42.2 °F 41.1 °F 30.46 in WNW 4.0 mph 4.0 mph 96 % 0.00 in 0 W/m2
22:20 42.2 °F 41.1 °F 30.46 in WNW 3.0 mph 5.0 mph 96 % 0.00 in 0 W/m2
22:25 42.2 °F 41.1 °F 30.46 in WNW 3.0 mph 5.0 mph 96 % 0.00 in 0 W/m2
22:30 42.1 °F 41.0 °F 30.46 in WNW 4.0 mph 5.0 mph 96 % 0.00 in 0 W/m2
22:35 42.2 °F 41.1 °F 30.46 in WNW 4.0 mph 5.0 mph 96 % 0.00 in 0 W/m2
22:40 42.2 °F 41.1 °F 30.46 in WNW 4.0 mph 5.0 mph 96 % 0.00 in 0 W/m2
22:45 42.3 °F 41.2 °F 30.46 in WNW 4.0 mph 5.0 mph 96 % 0.00 in 0 W/m2
22:50 42.3 °F 41.2 °F 30.46 in WNW 4.0 mph 5.0 mph 96 % 0.00 in 0 W/m2
22:55 42.4 °F 41.3 °F 30.46 in WNW 3.0 mph 5.0 mph 96 % 0.00 in 0 W/m2
23:00 42.4 °F 41.3 °F 30.46 in WNW 1.0 mph 1.0 mph 96 % 0.00 in 0 W/m2
23:10 42.2 °F 41.1 °F 30.46 in Calm   1.0 mph 96 % 0.00 in 0 W/m2
23:15 42.0 °F 40.9 °F 30.46 in Calm   1.0 mph 96 % 0.00 in 0 W/m2
23:20 41.8 °F 40.7 °F 30.45 in Calm   2.0 mph 96 % 0.00 in 0 W/m2
23:30 41.6 °F 40.5 °F 30.45 in WNW 3.0 mph 4.0 mph 96 % 0.00 in 0 W/m2
23:35 41.7 °F 40.6 °F 30.46 in WNW 4.0 mph 4.0 mph 96 % 0.00 in 0 W/m2
23:40 41.7 °F 40.6 °F 30.46 in WNW 4.0 mph 4.0 mph 96 % 0.00 in 0 W/m2
23:45 41.7 °F 40.6 °F 30.45 in WNW 3.0 mph 4.0 mph 96 % 0.00 in 0 W/m2
23:55 41.7 °F 40.6 °F 30.46 in WNW 2.0 mph 3.0 mph 96 % 0.00 in 0 W/m2
Delerius-Weather
Compliments of Weather Underground - 2 mb

Data updates at regular intervals.